createdAt,value
2022-10-22T00:02:37.110Z,79.90
2022-10-22T00:05:20.106Z,80.02
2022-10-22T00:08:15.618Z,80.01
2022-10-22T00:10:52.888Z,80.01
2022-10-22T00:13:52.325Z,80.06
2022-10-22T00:16:45.805Z,80.11
2022-10-22T00:19:51.925Z,79.94
2022-10-22T00:22:47.875Z,79.90
2022-10-22T00:25:49.682Z,80.00
2022-10-22T00:28:37.139Z,79.99
2022-10-22T00:31:35.876Z,79.95
2022-10-22T00:34:23.327Z,79.90
2022-10-22T00:40:43.278Z,79.83
2022-10-22T00:44:00.104Z,79.71
2022-10-22T00:46:45.708Z,79.61
2022-10-22T00:49:49.292Z,79.69
2022-10-22T00:52:40.782Z,79.57
2022-10-22T00:55:48.535Z,79.49
2022-10-22T00:58:50.866Z,79.42
2022-10-22T01:02:02.715Z,79.33
2022-10-22T01:05:01.293Z,79.28
2022-10-22T01:08:02.694Z,79.12
2022-10-22T01:11:24.297Z,79.14
2022-10-22T01:15:07.548Z,79.09
2022-10-22T01:18:26.127Z,79.08
2022-10-22T01:21:56.812Z,79.32
2022-10-22T01:25:32.697Z,79.65
2022-10-22T01:29:00.362Z,79.74
2022-10-22T01:32:02.773Z,79.48
2022-10-22T01:35:07.683Z,79.40
2022-10-22T01:37:55.561Z,79.43
2022-10-22T01:40:52.000Z,79.60
2022-10-22T01:43:47.590Z,79.82
2022-10-22T01:46:29.009Z,80.64
2022-10-22T01:49:35.832Z,81.05
2022-10-22T01:53:13.428Z,80.99
2022-10-22T01:56:24.546Z,80.90
2022-10-22T01:59:44.295Z,81.04
2022-10-22T02:02:58.074Z,81.20
2022-10-22T02:05:46.098Z,81.33
2022-10-22T02:08:22.328Z,81.40
2022-10-22T02:10:53.456Z,81.38
2022-10-22T02:14:03.285Z,81.39
2022-10-22T02:16:47.667Z,81.40
2022-10-22T02:19:44.327Z,81.52
2022-10-22T02:22:21.065Z,81.76
2022-10-22T02:25:17.856Z,81.90
2022-10-22T02:28:07.985Z,81.98
2022-10-22T02:30:50.429Z,82.15
2022-10-22T02:33:28.068Z,82.30
2022-10-22T02:36:25.120Z,82.42
2022-10-22T02:39:03.349Z,82.66
2022-10-22T02:42:01.922Z,82.81
2022-10-22T02:44:57.265Z,82.97
2022-10-22T02:47:31.865Z,83.00
2022-10-22T02:50:01.050Z,83.07
2022-10-22T02:52:29.190Z,83.10
2022-10-22T02:55:07.801Z,83.13
2022-10-22T02:58:03.629Z,83.11
2022-10-22T03:00:43.608Z,83.16
2022-10-22T03:03:41.522Z,83.18
2022-10-22T03:06:30.597Z,83.10
2022-10-22T03:09:34.620Z,83.30
2022-10-22T03:12:18.451Z,83.48
2022-10-22T03:14:49.853Z,83.62
2022-10-22T03:17:24.867Z,83.70
2022-10-22T03:20:06.100Z,83.81
2022-10-22T03:22:39.989Z,83.94
2022-10-22T03:25:27.108Z,83.95
2022-10-22T03:28:18.783Z,83.91
2022-10-22T03:31:19.061Z,83.84
2022-10-22T03:34:06.681Z,83.80
2022-10-22T03:37:05.404Z,83.72
2022-10-22T03:39:49.596Z,83.77
2022-10-22T03:42:48.587Z,83.96
2022-10-22T03:45:29.953Z,84.00
2022-10-22T03:48:30.115Z,83.96
2022-10-22T03:51:30.051Z,84.00
2022-10-22T03:54:29.372Z,84.00
2022-10-22T03:57:15.223Z,83.95
2022-10-22T04:00:14.868Z,83.94
2022-10-22T04:03:12.528Z,83.97
2022-10-22T04:06:13.463Z,84.02
2022-10-22T04:09:10.368Z,83.96
2022-10-22T04:11:48.089Z,83.84
2022-10-22T04:14:43.489Z,84.03
2022-10-22T04:17:20.436Z,84.04
2022-10-22T04:19:54.712Z,84.06
2022-10-22T04:22:50.664Z,84.16
2022-10-22T04:25:27.518Z,84.09
2022-10-22T04:28:24.265Z,83.98
2022-10-22T04:31:00.958Z,83.82
2022-10-22T04:33:58.086Z,83.90
2022-10-22T04:36:34.679Z,84.12
2022-10-22T04:39:31.361Z,84.19
2022-10-22T04:42:27.439Z,84.35
2022-10-22T04:45:02.953Z,84.53
2022-10-22T04:47:39.999Z,84.53
2022-10-22T04:50:08.762Z,84.45
2022-10-22T04:52:39.349Z,84.47
2022-10-22T04:55:07.933Z,84.39
2022-10-22T04:57:36.144Z,84.33
2022-10-22T05:00:06.088Z,84.38
2022-10-22T05:02:34.049Z,84.33
2022-10-22T05:05:02.052Z,84.28
2022-10-22T05:07:29.383Z,84.39
2022-10-22T05:09:56.618Z,84.48
2022-10-22T05:12:24.147Z,84.49
2022-10-22T05:14:51.393Z,84.43
2022-10-22T05:17:18.607Z,84.39
2022-10-22T05:19:45.934Z,84.28
2022-10-22T05:22:13.245Z,84.30
2022-10-22T05:24:40.809Z,84.25
2022-10-22T05:27:08.067Z,84.24
2022-10-22T05:29:36.143Z,84.34
2022-10-22T05:32:03.438Z,84.42
2022-10-22T05:34:30.758Z,84.40
2022-10-22T05:36:57.991Z,84.37
2022-10-22T05:39:25.089Z,84.57
2022-10-22T05:41:53.647Z,84.75
2022-10-22T05:44:21.196Z,84.89
2022-10-22T05:46:48.433Z,84.88
2022-10-22T05:49:16.009Z,84.86
2022-10-22T05:51:43.375Z,84.89
2022-10-22T05:54:20.353Z,84.85
2022-10-22T05:56:48.068Z,84.69
2022-10-22T05:59:15.456Z,84.51
2022-10-22T06:01:43.128Z,84.40
2022-10-22T06:04:12.993Z,84.29
2022-10-22T06:06:46.006Z,84.15
2022-10-22T06:09:42.084Z,84.00
2022-10-22T06:12:12.314Z,84.04
2022-10-22T06:14:39.634Z,84.03
2022-10-22T06:17:08.783Z,83.87
2022-10-22T06:19:36.417Z,83.76
2022-10-22T06:22:04.642Z,83.58
2022-10-22T06:24:32.044Z,83.43
2022-10-22T06:26:59.608Z,83.37
2022-10-22T06:29:26.906Z,83.26
2022-10-22T06:31:54.168Z,83.19
2022-10-22T06:34:21.794Z,83.16
2022-10-22T06:36:51.276Z,83.10
2022-10-22T06:39:18.682Z,83.03
2022-10-22T06:41:46.597Z,83.06
2022-10-22T06:44:17.397Z,82.99
2022-10-22T06:46:44.748Z,83.07
2022-10-22T06:49:16.770Z,82.93
2022-10-22T06:51:44.410Z,82.87
2022-10-22T06:54:11.966Z,83.00
2022-10-22T06:56:42.310Z,83.11
2022-10-22T06:59:09.730Z,82.78
2022-10-22T07:01:38.009Z,82.42
2022-10-22T07:04:06.544Z,82.26
2022-10-22T07:06:33.930Z,81.81
2022-10-22T07:09:01.240Z,81.50
2022-10-22T07:11:38.763Z,81.44
2022-10-22T07:14:06.462Z,81.44
2022-10-22T07:16:33.988Z,81.37
2022-10-22T07:19:03.040Z,81.66
2022-10-22T07:21:31.482Z,81.82
2022-10-22T07:23:59.532Z,81.65
2022-10-22T07:26:30.504Z,81.34
2022-10-22T07:29:01.054Z,81.21
2022-10-22T07:31:28.431Z,80.92
2022-10-22T07:33:56.087Z,80.77
2022-10-22T07:36:23.552Z,80.88
2022-10-22T07:38:57.622Z,80.83
2022-10-22T07:41:26.596Z,80.77
2022-10-22T07:43:55.237Z,80.67
2022-10-22T07:46:23.434Z,80.81
2022-10-22T07:48:51.090Z,80.81
2022-10-22T07:51:18.582Z,80.84
2022-10-22T07:53:45.874Z,80.91
2022-10-22T07:56:13.656Z,81.10
2022-10-22T07:58:41.252Z,81.06
2022-10-22T08:01:08.616Z,81.11
2022-10-22T08:03:36.336Z,81.15
2022-10-22T08:06:04.052Z,81.01
2022-10-22T08:08:31.797Z,81.09
2022-10-22T08:11:01.699Z,81.04
2022-10-22T08:13:32.291Z,80.98
2022-10-22T08:16:00.854Z,80.87
2022-10-22T08:18:29.055Z,80.74
2022-10-22T08:20:57.331Z,80.70
2022-10-22T08:23:28.335Z,80.77
2022-10-22T08:25:57.606Z,80.99
2022-10-22T08:28:25.979Z,81.08
2022-10-22T08:30:53.265Z,81.08
2022-10-22T08:33:20.552Z,81.31
2022-10-22T08:35:50.614Z,81.30
2022-10-22T08:38:19.316Z,81.39
2022-10-22T08:41:00.825Z,81.42
2022-10-22T08:44:01.874Z,81.49
2022-10-22T08:46:54.074Z,81.57
2022-10-22T08:49:39.755Z,81.47
2022-10-22T08:52:19.390Z,81.50
2022-10-22T08:54:59.714Z,81.43
2022-10-22T08:58:03.092Z,81.54
2022-10-22T09:01:22.993Z,81.43
2022-10-22T09:03:58.253Z,81.63
2022-10-22T09:06:29.921Z,81.82
2022-10-22T09:08:59.881Z,81.80
2022-10-22T09:11:35.258Z,81.81
2022-10-22T09:14:04.823Z,82.02
2022-10-22T09:17:11.799Z,82.01
2022-10-22T09:19:56.678Z,81.98
2022-10-22T09:22:52.417Z,81.92
2022-10-22T09:25:40.537Z,81.74
2022-10-22T09:28:10.054Z,81.79
2022-10-22T09:30:39.613Z,82.00
2022-10-22T09:33:06.762Z,82.20
2022-10-22T09:35:43.880Z,82.34
2022-10-22T09:38:14.641Z,82.54
2022-10-22T09:40:55.699Z,82.74
2022-10-22T09:43:23.768Z,82.89
2022-10-22T09:46:05.578Z,82.98
2022-10-22T09:48:41.049Z,83.05
2022-10-22T09:51:36.454Z,83.00
2022-10-22T09:54:21.171Z,82.86
2022-10-22T09:57:02.612Z,82.88
2022-10-22T09:59:38.211Z,82.69
2022-10-22T10:02:37.992Z,82.50
2022-10-22T10:05:08.668Z,82.31
2022-10-22T10:07:36.621Z,82.41
2022-10-22T10:10:37.459Z,82.55
2022-10-22T10:13:16.473Z,82.62
2022-10-22T10:16:00.373Z,82.60
2022-10-22T10:18:46.105Z,82.63
2022-10-22T10:21:24.782Z,82.69
2022-10-22T10:24:14.011Z,82.96
2022-10-22T10:27:14.808Z,83.18
2022-10-22T10:29:56.212Z,83.51
2022-10-22T10:32:42.054Z,83.60
2022-10-22T10:35:21.646Z,83.57
2022-10-22T10:38:03.668Z,83.87
2022-10-22T10:40:49.011Z,83.88
2022-10-22T10:43:48.435Z,83.81
2022-10-22T10:47:11.745Z,84.03
2022-10-22T10:49:38.975Z,83.59
2022-10-22T10:52:41.173Z,83.45
2022-10-22T10:55:35.653Z,83.21
2022-10-22T10:58:35.253Z,82.86
2022-10-22T11:01:21.037Z,82.83
2022-10-22T11:04:06.768Z,82.19
2022-10-22T11:06:38.998Z,82.50
2022-10-22T11:09:27.027Z,82.47
2022-10-22T11:12:01.513Z,82.38
2022-10-22T11:15:25.173Z,82.28
2022-10-22T11:18:02.824Z,81.85
2022-10-22T11:21:17.515Z,81.63
2022-10-22T11:24:10.114Z,81.22
2022-10-22T11:26:49.854Z,80.80
2022-10-22T11:29:27.225Z,80.17
2022-10-22T11:31:57.775Z,80.21
2022-10-22T11:34:51.032Z,80.73
2022-10-22T11:37:21.803Z,80.48
2022-10-22T11:39:59.620Z,80.28
2022-10-22T11:42:42.964Z,80.36
2022-10-22T11:45:13.330Z,80.84
2022-10-22T11:48:14.578Z,80.91
2022-10-22T11:50:46.749Z,81.57
2022-10-22T11:53:13.964Z,82.35
2022-10-22T11:55:51.268Z,82.89
2022-10-22T11:58:32.970Z,83.46
2022-10-22T12:01:09.235Z,83.86
2022-10-22T12:03:49.126Z,84.48
2022-10-22T12:06:26.509Z,85.24
2022-10-22T12:09:05.414Z,85.64
2022-10-22T12:11:40.687Z,85.79
2022-10-22T12:14:13.729Z,85.87
2022-10-22T12:17:13.359Z,85.93
2022-10-22T12:19:49.217Z,85.94
2022-10-22T12:22:37.134Z,86.08
2022-10-22T12:25:23.266Z,86.06
2022-10-22T12:28:00.628Z,86.22
2022-10-22T12:30:36.890Z,86.18
2022-10-22T12:33:08.303Z,86.14
2022-10-22T12:35:45.419Z,86.10
2022-10-22T12:38:25.179Z,86.14
2022-10-22T12:40:57.078Z,86.39
2022-10-22T12:43:29.498Z,86.39
2022-10-22T12:45:58.913Z,86.48
2022-10-22T12:48:35.977Z,86.70
2022-10-22T12:51:07.743Z,86.64
2022-10-22T12:53:56.702Z,86.72
2022-10-22T12:56:29.017Z,86.93
2022-10-22T12:59:04.742Z,86.94
2022-10-22T13:01:39.650Z,87.18
2022-10-22T13:04:12.794Z,87.13
2022-10-22T13:06:46.332Z,87.18
2022-10-22T13:09:27.548Z,87.39
2022-10-22T13:12:06.710Z,87.52
2022-10-22T13:14:38.647Z,87.58
2022-10-22T13:17:36.700Z,87.64
2022-10-22T13:20:20.186Z,87.50
2022-10-22T13:23:03.861Z,87.46
2022-10-22T13:25:35.525Z,87.41
2022-10-22T13:28:21.880Z,87.50
2022-10-22T13:30:59.410Z,87.48
2022-10-22T13:33:34.480Z,87.35
2022-10-22T13:36:02.909Z,87.31
2022-10-22T13:38:30.729Z,87.29
2022-10-22T13:40:59.155Z,87.22
2022-10-22T13:43:26.619Z,87.13
2022-10-22T13:46:01.260Z,87.07
2022-10-22T13:48:30.320Z,87.03
2022-10-22T13:50:57.667Z,87.02
2022-10-22T13:53:27.741Z,86.94
2022-10-22T13:55:56.059Z,86.89
2022-10-22T13:58:24.445Z,86.94
2022-10-22T14:00:59.618Z,86.86
2022-10-22T14:03:32.966Z,86.87
2022-10-22T14:06:00.583Z,86.93
2022-10-22T14:08:28.619Z,87.08
2022-10-22T14:10:56.141Z,87.16
2022-10-22T14:13:23.521Z,87.11
2022-10-22T14:15:52.160Z,87.17
2022-10-22T14:18:31.164Z,87.26
2022-10-22T14:21:04.791Z,87.30
2022-10-22T14:23:34.540Z,87.21
2022-10-22T14:26:03.739Z,87.17
2022-10-22T14:28:34.189Z,87.20
2022-10-22T14:31:10.979Z,87.11
2022-10-22T14:33:40.059Z,87.08
2022-10-22T14:36:08.960Z,87.03
2022-10-22T14:38:36.219Z,87.07
2022-10-22T14:41:13.194Z,87.04
2022-10-22T14:43:40.511Z,87.15
2022-10-22T14:46:12.255Z,87.11
2022-10-22T14:48:40.380Z,87.10
2022-10-22T14:51:11.447Z,87.15
2022-10-22T14:53:38.939Z,87.18
2022-10-22T14:56:06.459Z,87.19
2022-10-22T14:58:33.717Z,87.25
2022-10-22T15:01:04.443Z,87.28
2022-10-22T15:03:31.899Z,87.28
2022-10-22T15:06:00.119Z,87.23
2022-10-22T15:08:27.539Z,87.16
2022-10-22T15:11:00.359Z,87.15
2022-10-22T15:13:29.319Z,87.14
2022-10-22T15:15:58.259Z,87.15
2022-10-22T15:18:26.420Z,87.17
2022-10-22T15:21:03.599Z,87.29
2022-10-22T15:23:31.285Z,87.30
2022-10-22T15:25:59.162Z,87.30
2022-10-22T15:28:26.279Z,87.41
2022-10-22T15:31:01.162Z,87.39
2022-10-22T15:33:29.687Z,87.57
2022-10-22T15:35:58.303Z,87.64
2022-10-22T15:41:06.119Z,87.68
2022-10-22T15:43:34.602Z,87.71
2022-10-22T15:46:18.708Z,87.69
2022-10-22T15:48:46.420Z,88.94
2022-10-22T15:51:18.982Z,89.16
2022-10-22T15:53:55.458Z,89.43
2022-10-22T15:56:24.519Z,89.72
2022-10-22T15:59:02.311Z,89.74
2022-10-22T16:01:31.857Z,89.91
2022-10-22T16:04:02.178Z,90.14
2022-10-22T16:06:40.977Z,89.82
2022-10-22T16:09:12.476Z,89.59
2022-10-22T16:11:41.395Z,89.33
2022-10-22T16:35:16.166Z,88.37
2022-10-22T16:37:44.225Z,88.34
2022-10-22T16:40:12.469Z,88.27
2022-10-22T19:03:17.970Z,87.74
2022-10-22T19:05:49.093Z,87.70
2022-10-22T19:08:16.795Z,87.68
2022-10-22T19:10:46.432Z,88.33
2022-10-22T19:13:16.351Z,88.84
2022-10-22T19:15:44.133Z,89.15
2022-10-22T19:18:13.151Z,89.46
2022-10-22T19:20:40.971Z,89.80
2022-10-22T19:23:08.132Z,89.88
2022-10-22T19:25:36.392Z,90.00
2022-10-22T19:28:03.890Z,90.25
2022-10-22T19:30:30.970Z,90.36
2022-10-22T19:32:58.100Z,90.23
2022-10-22T19:35:25.232Z,90.16
2022-10-22T19:37:52.511Z,90.14
2022-10-22T19:40:19.911Z,90.22
2022-10-22T19:42:49.991Z,90.30
2022-10-22T19:45:17.911Z,90.27
2022-10-22T19:47:45.132Z,90.22
2022-10-22T19:50:12.353Z,90.09
2022-10-22T19:52:39.726Z,90.00
2022-10-22T19:55:09.651Z,90.00
2022-10-22T19:57:38.393Z,89.99
2022-10-22T20:00:07.110Z,89.90
2022-10-22T20:02:36.351Z,89.72
2022-10-22T20:05:04.613Z,89.57
2022-10-22T20:07:32.595Z,89.37
2022-10-22T20:09:59.792Z,89.44
2022-10-22T20:12:27.051Z,89.31
2022-10-22T20:14:54.394Z,89.35
2022-10-22T20:17:21.610Z,89.40
2022-10-22T20:19:48.792Z,89.27
2022-10-22T20:22:17.988Z,89.24
2022-10-22T20:24:46.080Z,89.33
2022-10-22T20:27:13.690Z,89.37
2022-10-22T20:29:40.943Z,89.38
2022-10-22T20:32:08.908Z,89.43
2022-10-22T20:34:37.173Z,89.59
2022-10-22T20:37:04.394Z,89.72
2022-10-22T20:39:31.571Z,89.84
2022-10-22T20:41:58.858Z,89.90
2022-10-22T20:44:26.032Z,89.83
2022-10-22T20:46:53.293Z,89.80
2022-10-22T20:49:21.431Z,89.67
2022-10-22T20:51:48.672Z,89.54
2022-10-22T20:54:16.691Z,89.40
2022-10-22T20:56:45.034Z,89.44
2022-10-22T20:59:12.430Z,89.57
2022-10-22T21:01:48.271Z,89.63
2022-10-22T21:04:17.313Z,89.64
2022-10-22T21:06:44.551Z,89.46
2022-10-22T21:09:14.469Z,89.53
2022-10-22T21:11:43.044Z,89.70
2022-10-22T21:14:13.618Z,89.62
2022-10-22T21:16:45.224Z,89.59
2022-10-22T21:19:12.774Z,89.58
2022-10-22T21:21:40.296Z,89.56
2022-10-22T21:24:08.373Z,89.69
2022-10-22T21:26:43.583Z,89.61
2022-10-22T21:29:13.192Z,89.81
2022-10-22T21:31:40.678Z,89.89
2022-10-22T21:34:08.010Z,89.94
2022-10-22T21:36:35.176Z,89.98
2022-10-22T21:39:02.631Z,90.07
2022-10-22T21:41:30.364Z,90.09
2022-10-22T21:43:57.913Z,90.05
2022-10-22T21:46:28.030Z,89.93
2022-10-22T21:48:58.933Z,89.84
2022-10-22T21:51:26.283Z,89.85
2022-10-22T21:53:54.560Z,89.88
2022-10-22T21:56:34.313Z,89.87
2022-10-22T21:59:08.901Z,89.91
2022-10-22T22:01:36.482Z,89.91
2022-10-22T22:04:09.892Z,89.91
2022-10-22T22:06:44.711Z,89.96
2022-10-22T22:09:12.400Z,90.09
2022-10-22T22:11:48.600Z,90.16
2022-10-22T22:14:24.810Z,90.10
2022-10-22T22:16:52.185Z,89.97
2022-10-22T22:19:47.609Z,89.79
2022-10-22T22:22:15.053Z,89.81
2022-10-22T22:24:51.194Z,89.80
2022-10-22T22:27:28.463Z,89.80
2022-10-22T22:30:06.095Z,89.83
2022-10-22T22:32:33.623Z,89.81
2022-10-22T22:35:01.332Z,89.80
2022-10-22T22:37:39.939Z,89.74
2022-10-22T22:40:08.999Z,89.79
2022-10-22T22:42:39.941Z,89.83
2022-10-22T22:45:08.106Z,89.90
2022-10-22T22:47:35.627Z,89.90
2022-10-22T22:50:12.750Z,89.94
2022-10-22T22:53:09.526Z,90.00
2022-10-22T22:55:45.837Z,90.05
2022-10-22T22:58:44.932Z,90.07
2022-10-22T23:01:29.370Z,90.18
2022-10-22T23:04:01.140Z,90.13
2022-10-22T23:06:38.263Z,89.99
2022-10-22T23:09:10.291Z,89.91
2022-10-22T23:11:48.478Z,89.90
2022-10-22T23:14:21.998Z,89.91
2022-10-22T23:16:54.330Z,89.90
2022-10-22T23:19:49.540Z,89.83
2022-10-22T23:22:17.318Z,89.81
2022-10-22T23:25:10.840Z,89.81
2022-10-22T23:27:46.341Z,89.82
2022-10-22T23:30:14.061Z,89.80
2022-10-22T23:32:42.066Z,89.73
2022-10-22T23:35:10.300Z,89.80
2022-10-22T23:37:52.486Z,89.75
2022-10-22T23:41:04.113Z,89.63
2022-10-22T23:43:45.534Z,89.42
2022-10-22T23:46:15.494Z,89.50
2022-10-22T23:48:45.883Z,89.64
2022-10-22T23:51:17.829Z,89.73
2022-10-22T23:53:48.830Z,89.80
2022-10-22T23:56:49.461Z,89.83
2022-10-22T23:59:38.591Z,89.71
